sensor_id;sensor_type;location;lat;lon;timestamp;P1;durP1;ratioP1;P2;durP2;ratioP2
4565;SDS011;2295;51.050;14.608;2024-03-23T00:54:39;20.77;;;11.45;;
4565;SDS011;2295;51.050;14.608;2024-03-23T00:57:06;22.80;;;12.18;;
4565;SDS011;2295;51.050;14.608;2024-03-23T00:59:34;20.35;;;10.85;;
4565;SDS011;2295;51.050;14.608;2024-03-23T01:02:00;26.15;;;11.88;;
4565;SDS011;2295;51.050;14.608;2024-03-23T01:04:28;19.90;;;10.40;;
4565;SDS011;2295;51.050;14.608;2024-03-23T01:06:54;19.58;;;10.32;;
4565;SDS011;2295;51.050;14.608;2024-03-23T01:09:22;20.45;;;10.73;;
4565;SDS011;2295;51.050;14.608;2024-03-23T01:11:50;23.80;;;10.75;;
4565;SDS011;2295;51.050;14.608;2024-03-23T01:14:17;19.77;;;11.35;;
4565;SDS011;2295;51.050;14.608;2024-03-23T01:16:44;24.17;;;11.95;;
4565;SDS011;2295;51.050;14.608;2024-03-23T01:19:12;23.25;;;12.75;;
4565;SDS011;2295;51.050;14.608;2024-03-23T01:21:38;25.40;;;12.65;;
4565;SDS011;2295;51.050;14.608;2024-03-23T01:24:06;21.15;;;11.18;;
4565;SDS011;2295;51.050;14.608;2024-03-23T01:26:35;18.95;;;11.35;;
4565;SDS011;2295;51.050;14.608;2024-03-23T01:29:05;21.63;;;11.80;;
4565;SDS011;2295;51.050;14.608;2024-03-23T01:31:31;29.00;;;11.25;;
4565;SDS011;2295;51.050;14.608;2024-03-23T01:33:59;22.40;;;11.02;;
4565;SDS011;2295;51.050;14.608;2024-03-23T01:36:25;19.55;;;11.13;;
4565;SDS011;2295;51.050;14.608;2024-03-23T01:38:53;20.95;;;11.00;;
4565;SDS011;2295;51.050;14.608;2024-03-23T01:41:20;23.83;;;11.02;;
4565;SDS011;2295;51.050;14.608;2024-03-23T01:43:47;23.63;;;10.50;;
4565;SDS011;2295;51.050;14.608;2024-03-23T01:46:15;27.00;;;11.27;;
4565;SDS011;2295;51.050;14.608;2024-03-23T01:48:43;28.65;;;12.07;;
4565;SDS011;2295;51.050;14.608;2024-03-23T01:51:10;23.85;;;10.73;;
4565;SDS011;2295;51.050;14.608;2024-03-23T01:53:38;20.92;;;10.82;;
4565;SDS011;2295;51.050;14.608;2024-03-23T01:56:04;19.88;;;11.18;;
4565;SDS011;2295;51.050;14.608;2024-03-23T01:58:32;20.15;;;10.18;;
4565;SDS011;2295;51.050;14.608;2024-03-23T02:00:59;22.98;;;12.00;;
4565;SDS011;2295;51.050;14.608;2024-03-23T02:03:28;20.50;;;11.82;;
4565;SDS011;2295;51.050;14.608;2024-03-23T02:05:54;20.75;;;11.20;;
4565;SDS011;2295;51.050;14.608;2024-03-23T02:08:23;20.15;;;11.00;;
4565;SDS011;2295;51.050;14.608;2024-03-23T02:10:50;18.27;;;10.85;;
4565;SDS011;2295;51.050;14.608;2024-03-23T02:13:18;22.08;;;10.70;;
4565;SDS011;2295;51.050;14.608;2024-03-23T02:15:45;17.25;;;9.65;;
4565;SDS011;2295;51.050;14.608;2024-03-23T02:18:13;17.83;;;10.60;;
4565;SDS011;2295;51.050;14.608;2024-03-23T02:20:41;22.20;;;11.93;;
4565;SDS011;2295;51.050;14.608;2024-03-23T02:23:14;22.50;;;11.50;;
4565;SDS011;2295;51.050;14.608;2024-03-23T02:25:40;21.73;;;11.88;;
4565;SDS011;2295;51.050;14.608;2024-03-23T02:28:08;22.13;;;10.65;;
4565;SDS011;2295;51.050;14.608;2024-03-23T02:30:35;26.77;;;11.25;;
4565;SDS011;2295;51.050;14.608;2024-03-23T02:33:02;17.90;;;10.77;;
4565;SDS011;2295;51.050;14.608;2024-03-23T02:35:29;22.05;;;10.52;;
4565;SDS011;2295;51.050;14.608;2024-03-23T02:37:57;22.08;;;11.85;;
4565;SDS011;2295;51.050;14.608;2024-03-23T02:40:25;28.58;;;13.60;;
4565;SDS011;2295;51.050;14.608;2024-03-23T02:42:52;29.88;;;13.30;;
4565;SDS011;2295;51.050;14.608;2024-03-23T02:45:19;30.48;;;13.73;;
4565;SDS011;2295;51.050;14.608;2024-03-23T02:47:47;27.67;;;14.07;;
4565;SDS011;2295;51.050;14.608;2024-03-23T02:50:17;28.38;;;12.35;;
4565;SDS011;2295;51.050;14.608;2024-03-23T02:52:45;21.50;;;10.80;;
4565;SDS011;2295;51.050;14.608;2024-03-23T02:55:11;25.20;;;10.57;;
4565;SDS011;2295;51.050;14.608;2024-03-23T02:57:40;23.67;;;11.57;;
4565;SDS011;2295;51.050;14.608;2024-03-23T03:00:07;27.77;;;12.40;;
4565;SDS011;2295;51.050;14.608;2024-03-23T03:02:36;21.17;;;11.38;;
4565;SDS011;2295;51.050;14.608;2024-03-23T03:05:03;26.23;;;12.13;;
4565;SDS011;2295;51.050;14.608;2024-03-23T03:07:31;22.33;;;11.00;;
4565;SDS011;2295;51.050;14.608;2024-03-23T03:09:57;20.60;;;10.88;;
4565;SDS011;2295;51.050;14.608;2024-03-23T03:12:25;25.38;;;12.07;;
4565;SDS011;2295;51.050;14.608;2024-03-23T03:14:53;30.65;;;13.32;;
4565;SDS011;2295;51.050;14.608;2024-03-23T03:17:21;31.00;;;13.60;;
4565;SDS011;2295;51.050;14.608;2024-03-23T03:19:48;30.45;;;14.32;;
4565;SDS011;2295;51.050;14.608;2024-03-23T03:22:21;34.88;;;14.00;;
4565;SDS011;2295;51.050;14.608;2024-03-23T03:24:47;29.90;;;12.80;;
4565;SDS011;2295;51.050;14.608;2024-03-23T03:27:15;28.75;;;14.18;;
4565;SDS011;2295;51.050;14.608;2024-03-23T03:29:41;26.00;;;12.93;;
4565;SDS011;2295;51.050;14.608;2024-03-23T03:32:10;27.20;;;12.77;;
4565;SDS011;2295;51.050;14.608;2024-03-23T03:34:37;29.20;;;12.48;;
4565;SDS011;2295;51.050;14.608;2024-03-23T03:37:05;24.02;;;12.43;;
4565;SDS011;2295;51.050;14.608;2024-03-23T03:39:31;30.70;;;13.05;;
4565;SDS011;2295;51.050;14.608;2024-03-23T03:41:59;24.13;;;12.20;;
4565;SDS011;2295;51.050;14.608;2024-03-23T03:44:27;27.00;;;13.25;;
4565;SDS011;2295;51.050;14.608;2024-03-23T03:46:54;24.48;;;13.77;;
4565;SDS011;2295;51.050;14.608;2024-03-23T03:49:22;29.33;;;14.30;;
4565;SDS011;2295;51.050;14.608;2024-03-23T03:51:50;26.90;;;13.35;;
4565;SDS011;2295;51.050;14.608;2024-03-23T03:54:17;24.02;;;12.50;;
4565;SDS011;2295;51.050;14.608;2024-03-23T03:56:44;27.95;;;14.07;;
4565;SDS011;2295;51.050;14.608;2024-03-23T03:59:11;26.13;;;12.77;;
4565;SDS011;2295;51.050;14.608;2024-03-23T04:01:39;22.20;;;10.40;;
4565;SDS011;2295;51.050;14.608;2024-03-23T04:04:06;24.15;;;12.45;;
4565;SDS011;2295;51.050;14.608;2024-03-23T04:06:35;24.70;;;12.18;;
4565;SDS011;2295;51.050;14.608;2024-03-23T04:09:02;23.98;;;10.48;;
4565;SDS011;2295;51.050;14.608;2024-03-23T04:11:29;28.15;;;12.02;;
4565;SDS011;2295;51.050;14.608;2024-03-23T04:13:56;25.15;;;12.98;;
4565;SDS011;2295;51.050;14.608;2024-03-23T04:16:27;23.23;;;12.75;;
4565;SDS011;2295;51.050;14.608;2024-03-23T04:18:53;24.25;;;12.55;;
4565;SDS011;2295;51.050;14.608;2024-03-23T04:21:21;21.33;;;11.30;;
4565;SDS011;2295;51.050;14.608;2024-03-23T04:23:49;21.40;;;11.77;;
4565;SDS011;2295;51.050;14.608;2024-03-23T04:26:17;22.17;;;10.90;;
4565;SDS011;2295;51.050;14.608;2024-03-23T04:28:43;23.70;;;11.77;;
4565;SDS011;2295;51.050;14.608;2024-03-23T04:31:11;25.75;;;11.38;;
4565;SDS011;2295;51.050;14.608;2024-03-23T04:33:38;20.10;;;10.95;;
4565;SDS011;2295;51.050;14.608;2024-03-23T04:36:05;24.75;;;12.43;;
4565;SDS011;2295;51.050;14.608;2024-03-23T04:38:32;21.85;;;11.85;;
4565;SDS011;2295;51.050;14.608;2024-03-23T04:41:01;26.17;;;11.75;;
4565;SDS011;2295;51.050;14.608;2024-03-23T04:43:29;21.30;;;12.18;;
4565;SDS011;2295;51.050;14.608;2024-03-23T04:45:57;19.92;;;10.43;;
4565;SDS011;2295;51.050;14.608;2024-03-23T04:48:25;20.42;;;10.63;;
4565;SDS011;2295;51.050;14.608;2024-03-23T04:50:54;23.42;;;11.80;;
4565;SDS011;2295;51.050;14.608;2024-03-23T04:53:23;22.60;;;10.30;;
4565;SDS011;2295;51.050;14.608;2024-03-23T04:55:53;20.55;;;10.40;;
4565;SDS011;2295;51.050;14.608;2024-03-23T04:58:23;20.75;;;10.65;;
4565;SDS011;2295;51.050;14.608;2024-03-23T05:00:53;21.75;;;11.20;;
4565;SDS011;2295;51.050;14.608;2024-03-23T05:03:21;22.05;;;11.23;;
4565;SDS011;2295;51.050;14.608;2024-03-23T05:05:49;18.90;;;9.98;;
4565;SDS011;2295;51.050;14.608;2024-03-23T05:08:16;20.50;;;9.38;;
4565;SDS011;2295;51.050;14.608;2024-03-23T05:10:44;17.33;;;9.38;;
4565;SDS011;2295;51.050;14.608;2024-03-23T05:13:11;19.55;;;10.77;;
4565;SDS011;2295;51.050;14.608;2024-03-23T05:15:40;21.42;;;9.43;;
4565;SDS011;2295;51.050;14.608;2024-03-23T05:18:06;23.02;;;12.07;;
4565;SDS011;2295;51.050;14.608;2024-03-23T05:20:34;36.75;;;17.58;;
4565;SDS011;2295;51.050;14.608;2024-03-23T05:23:02;40.67;;;17.83;;
4565;SDS011;2295;51.050;14.608;2024-03-23T05:25:29;30.20;;;15.10;;
4565;SDS011;2295;51.050;14.608;2024-03-23T05:27:56;28.25;;;14.98;;
4565;SDS011;2295;51.050;14.608;2024-03-23T05:30:24;33.42;;;16.30;;
4565;SDS011;2295;51.050;14.608;2024-03-23T05:32:52;59.47;;;29.30;;
4565;SDS011;2295;51.050;14.608;2024-03-23T05:35:20;44.05;;;19.08;;
4565;SDS011;2295;51.050;14.608;2024-03-23T05:37:46;29.92;;;14.68;;
4565;SDS011;2295;51.050;14.608;2024-03-23T05:40:14;29.92;;;15.05;;
4565;SDS011;2295;51.050;14.608;2024-03-23T05:42:40;25.60;;;12.25;;
4565;SDS011;2295;51.050;14.608;2024-03-23T05:45:08;21.88;;;12.23;;
4565;SDS011;2295;51.050;14.608;2024-03-23T05:47:36;28.02;;;12.75;;
4565;SDS011;2295;51.050;14.608;2024-03-23T05:50:06;27.15;;;13.65;;
4565;SDS011;2295;51.050;14.608;2024-03-23T05:52:32;24.88;;;12.80;;
4565;SDS011;2295;51.050;14.608;2024-03-23T05:55:00;29.52;;;14.30;;
4565;SDS011;2295;51.050;14.608;2024-03-23T05:57:26;25.92;;;13.82;;
4565;SDS011;2295;51.050;14.608;2024-03-23T05:59:54;27.40;;;13.13;;
4565;SDS011;2295;51.050;14.608;2024-03-23T06:02:21;24.17;;;14.23;;
4565;SDS011;2295;51.050;14.608;2024-03-23T06:04:49;27.75;;;13.63;;
4565;SDS011;2295;51.050;14.608;2024-03-23T06:07:17;23.27;;;13.15;;
4565;SDS011;2295;51.050;14.608;2024-03-23T06:09:45;20.05;;;11.90;;
4565;SDS011;2295;51.050;14.608;2024-03-23T06:12:11;22.63;;;12.00;;
4565;SDS011;2295;51.050;14.608;2024-03-23T06:14:39;22.42;;;13.10;;
4565;SDS011;2295;51.050;14.608;2024-03-23T06:17:06;24.60;;;11.80;;
4565;SDS011;2295;51.050;14.608;2024-03-23T06:19:33;19.50;;;10.48;;
4565;SDS011;2295;51.050;14.608;2024-03-23T06:22:00;22.52;;;11.80;;
4565;SDS011;2295;51.050;14.608;2024-03-23T06:24:29;20.27;;;11.40;;
4565;SDS011;2295;51.050;14.608;2024-03-23T06:26:55;17.92;;;10.13;;
4565;SDS011;2295;51.050;14.608;2024-03-23T06:29:23;18.67;;;11.50;;
4565;SDS011;2295;51.050;14.608;2024-03-23T06:31:53;19.13;;;12.02;;
4565;SDS011;2295;51.050;14.608;2024-03-23T06:34:21;41.47;;;20.90;;
4565;SDS011;2295;51.050;14.608;2024-03-23T06:36:48;44.15;;;20.60;;
4565;SDS011;2295;51.050;14.608;2024-03-23T06:39:16;39.47;;;17.83;;
4565;SDS011;2295;51.050;14.608;2024-03-23T06:41:46;31.77;;;16.15;;
4565;SDS011;2295;51.050;14.608;2024-03-23T06:44:18;27.40;;;14.68;;
4565;SDS011;2295;51.050;14.608;2024-03-23T06:46:45;22.52;;;12.95;;
4565;SDS011;2295;51.050;14.608;2024-03-23T06:49:13;20.50;;;12.27;;
4565;SDS011;2295;51.050;14.608;2024-03-23T06:51:39;26.70;;;13.68;;
4565;SDS011;2295;51.050;14.608;2024-03-23T06:54:07;26.08;;;13.25;;
4565;SDS011;2295;51.050;14.608;2024-03-23T06:56:33;30.08;;;16.58;;
4565;SDS011;2295;51.050;14.608;2024-03-23T06:59:02;29.17;;;16.25;;
4565;SDS011;2295;51.050;14.608;2024-03-23T07:01:29;42.55;;;17.35;;
4565;SDS011;2295;51.050;14.608;2024-03-23T07:03:57;30.83;;;16.77;;
4565;SDS011;2295;51.050;14.608;2024-03-23T07:06:23;31.55;;;17.23;;
4565;SDS011;2295;51.050;14.608;2024-03-23T07:08:52;28.73;;;16.90;;
4565;SDS011;2295;51.050;14.608;2024-03-23T07:11:18;33.33;;;18.05;;
4565;SDS011;2295;51.050;14.608;2024-03-23T07:13:46;31.33;;;18.40;;
4565;SDS011;2295;51.050;14.608;2024-03-23T07:16:14;29.08;;;16.52;;
4565;SDS011;2295;51.050;14.608;2024-03-23T07:18:42;31.52;;;16.67;;
4565;SDS011;2295;51.050;14.608;2024-03-23T07:21:09;37.47;;;17.98;;
4565;SDS011;2295;51.050;14.608;2024-03-23T07:23:36;29.30;;;16.48;;
4565;SDS011;2295;51.050;14.608;2024-03-23T07:26:07;28.83;;;17.70;;
4565;SDS011;2295;51.050;14.608;2024-03-23T07:28:34;40.20;;;19.65;;
4565;SDS011;2295;51.050;14.608;2024-03-23T07:31:02;34.70;;;18.90;;
4565;SDS011;2295;51.050;14.608;2024-03-23T07:33:30;31.27;;;19.00;;
4565;SDS011;2295;51.050;14.608;2024-03-23T07:35:58;32.10;;;17.38;;
4565;SDS011;2295;51.050;14.608;2024-03-23T07:38:26;32.25;;;18.35;;
4565;SDS011;2295;51.050;14.608;2024-03-23T07:41:02;35.17;;;19.10;;
4565;SDS011;2295;51.050;14.608;2024-03-23T07:43:28;33.25;;;19.13;;
4565;SDS011;2295;51.050;14.608;2024-03-23T07:45:59;33.85;;;19.77;;
4565;SDS011;2295;51.050;14.608;2024-03-23T07:48:26;46.38;;;20.90;;
4565;SDS011;2295;51.050;14.608;2024-03-23T07:51:02;33.30;;;19.80;;
4565;SDS011;2295;51.050;14.608;2024-03-23T07:53:29;35.03;;;19.77;;
4565;SDS011;2295;51.050;14.608;2024-03-23T07:55:57;36.05;;;19.30;;
4565;SDS011;2295;51.050;14.608;2024-03-23T07:58:24;136.95;;;59.78;;
4565;SDS011;2295;51.050;14.608;2024-03-23T08:00:52;52.17;;;28.27;;
4565;SDS011;2295;51.050;14.608;2024-03-23T08:03:20;36.47;;;21.15;;
4565;SDS011;2295;51.050;14.608;2024-03-23T08:05:46;42.30;;;19.50;;
4565;SDS011;2295;51.050;14.608;2024-03-23T08:08:15;42.20;;;23.00;;
4565;SDS011;2295;51.050;14.608;2024-03-23T08:10:48;39.95;;;20.38;;
4565;SDS011;2295;51.050;14.608;2024-03-23T08:13:16;36.33;;;20.98;;
4565;SDS011;2295;51.050;14.608;2024-03-23T08:15:43;33.30;;;18.40;;
4565;SDS011;2295;51.050;14.608;2024-03-23T08:18:12;46.15;;;20.67;;
4565;SDS011;2295;51.050;14.608;2024-03-23T08:20:38;36.00;;;19.15;;
4565;SDS011;2295;51.050;14.608;2024-03-23T08:23:06;35.35;;;19.40;;
4565;SDS011;2295;51.050;14.608;2024-03-23T08:25:34;30.65;;;17.85;;
4565;SDS011;2295;51.050;14.608;2024-03-23T08:28:02;33.80;;;18.08;;
4565;SDS011;2295;51.050;14.608;2024-03-23T08:30:29;36.67;;;19.30;;
4565;SDS011;2295;51.050;14.608;2024-03-23T08:32:56;30.15;;;18.65;;
4565;SDS011;2295;51.050;14.608;2024-03-23T08:35:23;32.13;;;18.20;;
4565;SDS011;2295;51.050;14.608;2024-03-23T08:37:51;32.60;;;17.90;;
4565;SDS011;2295;51.050;14.608;2024-03-23T08:40:18;37.45;;;19.15;;
4565;SDS011;2295;51.050;14.608;2024-03-23T08:42:47;29.55;;;17.05;;
4565;SDS011;2295;51.050;14.608;2024-03-23T08:45:13;29.90;;;17.00;;
4565;SDS011;2295;51.050;14.608;2024-03-23T08:47:41;27.42;;;14.95;;
4565;SDS011;2295;51.050;14.608;2024-03-23T08:50:08;26.15;;;14.13;;
4565;SDS011;2295;51.050;14.608;2024-03-23T08:52:36;23.70;;;13.65;;
4565;SDS011;2295;51.050;14.608;2024-03-23T08:55:02;23.95;;;13.02;;
4565;SDS011;2295;51.050;14.608;2024-03-23T08:57:30;20.08;;;12.20;;
4565;SDS011;2295;51.050;14.608;2024-03-23T08:59:58;16.55;;;10.65;;
4565;SDS011;2295;51.050;14.608;2024-03-23T09:02:26;22.08;;;11.25;;
4565;SDS011;2295;51.050;14.608;2024-03-23T09:04:52;21.08;;;12.68;;
4565;SDS011;2295;51.050;14.608;2024-03-23T09:07:20;18.40;;;10.90;;
4565;SDS011;2295;51.050;14.608;2024-03-23T09:09:46;18.55;;;11.68;;
4565;SDS011;2295;51.050;14.608;2024-03-23T09:12:14;16.00;;;10.15;;
4565;SDS011;2295;51.050;14.608;2024-03-23T09:14:41;15.37;;;10.40;;
4565;SDS011;2295;51.050;14.608;2024-03-23T09:17:10;15.75;;;10.93;;
4565;SDS011;2295;51.050;14.608;2024-03-23T09:19:38;18.55;;;10.82;;
4565;SDS011;2295;51.050;14.608;2024-03-23T09:22:06;16.38;;;10.38;;
4565;SDS011;2295;51.050;14.608;2024-03-23T09:24:32;15.52;;;10.77;;
4565;SDS011;2295;51.050;14.608;2024-03-23T09:27:00;16.38;;;11.18;;
4565;SDS011;2295;51.050;14.608;2024-03-23T09:29:27;19.13;;;11.25;;
4565;SDS011;2295;51.050;14.608;2024-03-23T09:31:54;18.02;;;11.75;;
4565;SDS011;2295;51.050;14.608;2024-03-23T09:34:22;18.23;;;11.32;;
4565;SDS011;2295;51.050;14.608;2024-03-23T09:36:50;21.20;;;12.18;;
4565;SDS011;2295;51.050;14.608;2024-03-23T09:39:17;17.65;;;11.48;;
4565;SDS011;2295;51.050;14.608;2024-03-23T09:41:45;19.17;;;11.20;;
4565;SDS011;2295;51.050;14.608;2024-03-23T09:44:11;16.88;;;11.63;;
4565;SDS011;2295;51.050;14.608;2024-03-23T09:46:39;18.15;;;10.95;;
4565;SDS011;2295;51.050;14.608;2024-03-23T09:49:07;17.65;;;11.38;;
4565;SDS011;2295;51.050;14.608;2024-03-23T09:51:36;20.70;;;11.95;;
4565;SDS011;2295;51.050;14.608;2024-03-23T09:54:03;19.08;;;12.02;;
4565;SDS011;2295;51.050;14.608;2024-03-23T09:56:31;20.42;;;13.57;;
4565;SDS011;2295;51.050;14.608;2024-03-23T09:59:01;26.15;;;13.30;;
4565;SDS011;2295;51.050;14.608;2024-03-23T10:01:29;21.20;;;14.00;;
4565;SDS011;2295;51.050;14.608;2024-03-23T10:03:56;22.48;;;12.00;;
4565;SDS011;2295;51.050;14.608;2024-03-23T10:06:23;21.30;;;13.52;;
4565;SDS011;2295;51.050;14.608;2024-03-23T10:08:52;28.27;;;14.00;;
4565;SDS011;2295;51.050;14.608;2024-03-23T10:11:20;19.90;;;12.13;;
4565;SDS011;2295;51.050;14.608;2024-03-23T10:13:47;19.70;;;12.60;;
4565;SDS011;2295;51.050;14.608;2024-03-23T10:16:22;21.40;;;12.55;;
4565;SDS011;2295;51.050;14.608;2024-03-23T10:18:49;24.70;;;14.30;;
4565;SDS011;2295;51.050;14.608;2024-03-23T10:21:17;23.38;;;14.45;;
4565;SDS011;2295;51.050;14.608;2024-03-23T10:23:43;24.77;;;14.60;;
4565;SDS011;2295;51.050;14.608;2024-03-23T10:26:13;25.67;;;15.18;;
4565;SDS011;2295;51.050;14.608;2024-03-23T10:28:56;28.90;;;14.02;;
4565;SDS011;2295;51.050;14.608;2024-03-23T10:31:26;31.95;;;17.55;;
4565;SDS011;2295;51.050;14.608;2024-03-23T10:33:53;26.45;;;15.77;;
4565;SDS011;2295;51.050;14.608;2024-03-23T10:36:21;20.67;;;12.93;;
4565;SDS011;2295;51.050;14.608;2024-03-23T10:38:49;38.60;;;16.98;;
4565;SDS011;2295;51.050;14.608;2024-03-23T10:41:18;26.95;;;14.50;;
4565;SDS011;2295;51.050;14.608;2024-03-23T10:43:45;23.65;;;13.80;;
4565;SDS011;2295;51.050;14.608;2024-03-23T10:46:13;20.13;;;11.75;;
4565;SDS011;2295;51.050;14.608;2024-03-23T10:48:40;16.83;;;9.70;;
4565;SDS011;2295;51.050;14.608;2024-03-23T10:51:08;17.60;;;10.40;;
4565;SDS011;2295;51.050;14.608;2024-03-23T10:53:36;14.68;;;8.38;;
4565;SDS011;2295;51.050;14.608;2024-03-23T10:56:04;16.40;;;9.25;;
4565;SDS011;2295;51.050;14.608;2024-03-23T10:58:33;21.33;;;11.13;;
4565;SDS011;2295;51.050;14.608;2024-03-23T11:01:03;18.13;;;9.02;;
4565;SDS011;2295;51.050;14.608;2024-03-23T11:03:30;17.17;;;8.40;;
4565;SDS011;2295;51.050;14.608;2024-03-23T11:05:58;18.52;;;8.95;;
4565;SDS011;2295;51.050;14.608;2024-03-23T11:08:32;14.23;;;7.50;;
4565;SDS011;2295;51.050;14.608;2024-03-23T11:11:16;16.10;;;7.95;;
4565;SDS011;2295;51.050;14.608;2024-03-23T11:13:47;12.93;;;6.68;;
4565;SDS011;2295;51.050;14.608;2024-03-23T11:16:15;12.48;;;5.18;;
4565;SDS011;2295;51.050;14.608;2024-03-23T11:18:42;5.05;;;2.40;;
4565;SDS011;2295;51.050;14.608;2024-03-23T11:21:11;11.52;;;2.10;;
4565;SDS011;2295;51.050;14.608;2024-03-23T11:24:13;2.17;;;1.98;;
4565;SDS011;2295;51.050;14.608;2024-03-23T11:26:49;2.60;;;1.77;;
4565;SDS011;2295;51.050;14.608;2024-03-23T11:29:18;4.78;;;2.70;;
4565;SDS011;2295;51.050;14.608;2024-03-23T11:31:46;5.85;;;2.13;;
4565;SDS011;2295;51.050;14.608;2024-03-23T11:34:13;3.65;;;1.15;;
4565;SDS011;2295;51.050;14.608;2024-03-23T11:36:42;1.20;;;1.10;;
4565;SDS011;2295;51.050;14.608;2024-03-23T11:39:12;1.00;;;0.90;;
4565;SDS011;2295;51.050;14.608;2024-03-23T11:41:48;1.10;;;1.00;;
4565;SDS011;2295;51.050;14.608;2024-03-23T11:44:16;1.38;;;0.82;;
4565;SDS011;2295;51.050;14.608;2024-03-23T11:46:45;1.58;;;0.98;;
4565;SDS011;2295;51.050;14.608;2024-03-23T11:49:22;2.25;;;0.77;;
4565;SDS011;2295;51.050;14.608;2024-03-23T11:51:50;0.93;;;0.60;;
4565;SDS011;2295;51.050;14.608;2024-03-23T11:54:19;2.28;;;1.10;;
4565;SDS011;2295;51.050;14.608;2024-03-23T11:56:57;0.57;;;0.45;;
4565;SDS011;2295;51.050;14.608;2024-03-23T11:59:33;0.60;;;0.55;;
4565;SDS011;2295;51.050;14.608;2024-03-23T12:02:07;1.80;;;0.75;;
4565;SDS011;2295;51.050;14.608;2024-03-23T12:04:34;0.68;;;0.68;;
4565;SDS011;2295;51.050;14.608;2024-03-23T12:07:09;1.35;;;0.70;;
4565;SDS011;2295;51.050;14.608;2024-03-23T12:09:36;0.63;;;0.60;;
4565;SDS011;2295;51.050;14.608;2024-03-23T12:12:13;0.77;;;0.60;;
4565;SDS011;2295;51.050;14.608;2024-03-23T12:14:43;0.60;;;0.60;;
4565;SDS011;2295;51.050;14.608;2024-03-23T12:17:13;1.70;;;0.60;;
4565;SDS011;2295;51.050;14.608;2024-03-23T12:19:40;0.60;;;0.50;;
4565;SDS011;2295;51.050;14.608;2024-03-23T12:22:14;0.60;;;0.50;;
4565;SDS011;2295;51.050;14.608;2024-03-23T12:24:41;1.10;;;1.00;;
4565;SDS011;2295;51.050;14.608;2024-03-23T12:27:13;0.90;;;0.60;;
4565;SDS011;2295;51.050;14.608;2024-03-23T12:29:50;0.88;;;0.70;;
4565;SDS011;2295;51.050;14.608;2024-03-23T12:32:22;0.60;;;0.50;;
4565;SDS011;2295;51.050;14.608;2024-03-23T12:34:49;0.60;;;0.60;;
4565;SDS011;2295;51.050;14.608;2024-03-23T12:37:16;0.60;;;0.50;;
4565;SDS011;2295;51.050;14.608;2024-03-23T12:39:44;0.60;;;0.50;;
4565;SDS011;2295;51.050;14.608;2024-03-23T12:42:11;0.50;;;0.50;;
4565;SDS011;2295;51.050;14.608;2024-03-23T12:44:39;0.70;;;0.60;;
4565;SDS011;2295;51.050;14.608;2024-03-23T12:47:06;0.70;;;0.65;;
4565;SDS011;2295;51.050;14.608;2024-03-23T12:49:35;0.77;;;0.70;;
4565;SDS011;2295;51.050;14.608;2024-03-23T12:52:02;0.80;;;0.68;;
4565;SDS011;2295;51.050;14.608;2024-03-23T12:54:30;0.60;;;0.50;;
4565;SDS011;2295;51.050;14.608;2024-03-23T12:56:57;0.77;;;0.65;;
4565;SDS011;2295;51.050;14.608;2024-03-23T12:59:27;0.60;;;0.52;;
4565;SDS011;2295;51.050;14.608;2024-03-23T13:01:57;0.60;;;0.60;;
4565;SDS011;2295;51.050;14.608;2024-03-23T13:04:35;0.70;;;0.70;;
4565;SDS011;2295;51.050;14.608;2024-03-23T13:07:03;1.33;;;1.20;;
4565;SDS011;2295;51.050;14.608;2024-03-23T13:09:41;0.60;;;0.50;;
4565;SDS011;2295;51.050;14.608;2024-03-23T13:12:12;0.70;;;0.70;;
4565;SDS011;2295;51.050;14.608;2024-03-23T13:14:48;0.93;;;0.80;;
4565;SDS011;2295;51.050;14.608;2024-03-23T13:17:15;2.30;;;2.10;;
4565;SDS011;2295;51.050;14.608;2024-03-23T13:19:48;1.10;;;1.00;;
4565;SDS011;2295;51.050;14.608;2024-03-23T13:22:14;1.38;;;1.27;;
4565;SDS011;2295;51.050;14.608;2024-03-23T13:24:44;3.67;;;2.00;;
4565;SDS011;2295;51.050;14.608;2024-03-23T13:27:16;1.60;;;1.50;;
4565;SDS011;2295;51.050;14.608;2024-03-23T13:29:44;4.25;;;3.85;;
4565;SDS011;2295;51.050;14.608;2024-03-23T13:32:12;1.08;;;1.08;;
4565;SDS011;2295;51.050;14.608;2024-03-23T13:34:40;1.25;;;1.15;;
4565;SDS011;2295;51.050;14.608;2024-03-23T13:37:08;1.20;;;1.10;;
4565;SDS011;2295;51.050;14.608;2024-03-23T13:39:39;1.17;;;1.08;;
4565;SDS011;2295;51.050;14.608;2024-03-23T13:42:07;1.80;;;0.80;;
4565;SDS011;2295;51.050;14.608;2024-03-23T13:44:35;0.80;;;0.80;;
4565;SDS011;2295;51.050;14.608;2024-03-23T13:47:02;0.85;;;0.85;;
4565;SDS011;2295;51.050;14.608;2024-03-23T13:49:30;1.00;;;0.90;;
4565;SDS011;2295;51.050;14.608;2024-03-23T13:51:57;3.40;;;0.90;;
4565;SDS011;2295;51.050;14.608;2024-03-23T13:54:27;1.55;;;0.80;;
4565;SDS011;2295;51.050;14.608;2024-03-23T13:56:54;0.80;;;0.80;;
4565;SDS011;2295;51.050;14.608;2024-03-23T13:59:22;1.10;;;1.00;;
4565;SDS011;2295;51.050;14.608;2024-03-23T14:01:49;1.08;;;0.85;;
4565;SDS011;2295;51.050;14.608;2024-03-23T14:04:20;1.10;;;1.00;;
4565;SDS011;2295;51.050;14.608;2024-03-23T14:06:48;2.72;;;2.15;;
4565;SDS011;2295;51.050;14.608;2024-03-23T14:09:16;1.58;;;1.48;;
4565;SDS011;2295;51.050;14.608;2024-03-23T14:11:48;1.30;;;0.80;;
4565;SDS011;2295;51.050;14.608;2024-03-23T14:14:16;4.00;;;3.10;;
4565;SDS011;2295;51.050;14.608;2024-03-23T14:16:43;13.00;;;8.63;;
4565;SDS011;2295;51.050;14.608;2024-03-23T14:19:11;4.40;;;3.25;;
4565;SDS011;2295;51.050;14.608;2024-03-23T14:21:37;4.72;;;2.10;;
4565;SDS011;2295;51.050;14.608;2024-03-23T14:24:05;1.60;;;1.50;;
4565;SDS011;2295;51.050;14.608;2024-03-23T14:26:42;1.92;;;1.73;;
4565;SDS011;2295;51.050;14.608;2024-03-23T14:29:11;2.72;;;1.33;;
4565;SDS011;2295;51.050;14.608;2024-03-23T14:31:38;6.28;;;1.48;;
4565;SDS011;2295;51.050;14.608;2024-03-23T14:34:07;1.45;;;1.30;;
4565;SDS011;2295;51.050;14.608;2024-03-23T14:36:33;5.95;;;1.67;;
4565;SDS011;2295;51.050;14.608;2024-03-23T14:39:01;5.50;;;3.28;;
4565;SDS011;2295;51.050;14.608;2024-03-23T14:41:31;1.33;;;1.10;;
4565;SDS011;2295;51.050;14.608;2024-03-23T14:44:02;2.15;;;1.42;;
4565;SDS011;2295;51.050;14.608;2024-03-23T14:46:30;1.55;;;1.20;;
4565;SDS011;2295;51.050;14.608;2024-03-23T14:48:59;1.42;;;1.20;;
4565;SDS011;2295;51.050;14.608;2024-03-23T14:51:25;2.15;;;1.10;;
4565;SDS011;2295;51.050;14.608;2024-03-23T14:53:53;5.70;;;2.47;;
4565;SDS011;2295;51.050;14.608;2024-03-23T14:56:20;1.95;;;1.10;;
4565;SDS011;2295;51.050;14.608;2024-03-23T14:58:56;1.52;;;1.08;;
4565;SDS011;2295;51.050;14.608;2024-03-23T15:01:23;4.40;;;1.52;;
4565;SDS011;2295;51.050;14.608;2024-03-23T15:04:01;2.95;;;1.30;;
4565;SDS011;2295;51.050;14.608;2024-03-23T15:06:29;3.78;;;1.40;;
4565;SDS011;2295;51.050;14.608;2024-03-23T15:08:57;2.75;;;1.40;;
4565;SDS011;2295;51.050;14.608;2024-03-23T15:11:23;1.67;;;1.30;;
4565;SDS011;2295;51.050;14.608;2024-03-23T15:13:51;2.55;;;1.30;;
4565;SDS011;2295;51.050;14.608;2024-03-23T15:16:23;5.60;;;1.92;;
4565;SDS011;2295;51.050;14.608;2024-03-23T15:19:02;1.80;;;1.40;;
4565;SDS011;2295;51.050;14.608;2024-03-23T15:21:31;5.07;;;1.70;;
4565;SDS011;2295;51.050;14.608;2024-03-23T15:23:58;7.25;;;1.98;;
4565;SDS011;2295;51.050;14.608;2024-03-23T15:26:25;2.92;;;1.60;;
4565;SDS011;2295;51.050;14.608;2024-03-23T15:28:53;3.08;;;1.55;;
4565;SDS011;2295;51.050;14.608;2024-03-23T15:31:35;15.18;;;4.70;;
4565;SDS011;2295;51.050;14.608;2024-03-23T15:34:04;3.78;;;2.38;;
4565;SDS011;2295;51.050;14.608;2024-03-23T15:36:35;1.70;;;1.60;;
4565;SDS011;2295;51.050;14.608;2024-03-23T15:39:06;4.28;;;1.92;;
4565;SDS011;2295;51.050;14.608;2024-03-23T15:41:33;6.22;;;2.17;;
4565;SDS011;2295;51.050;14.608;2024-03-23T15:44:02;2.80;;;1.75;;